sensor_id;sensor_type;location;lat;lon;timestamp;temperature;humidity
316;DHT22;14128;48.686;9.738;2023-04-24T00:01:02;18.30;1.40
316;DHT22;14128;48.686;9.738;2023-04-24T00:03:30;18.20;1.40
316;DHT22;14128;48.686;9.738;2023-04-24T00:05:58;18.00;1.40
316;DHT22;14128;48.686;9.738;2023-04-24T00:08:26;17.90;1.40
316;DHT22;14128;48.686;9.738;2023-04-24T00:10:53;17.80;1.40
316;DHT22;14128;48.686;9.738;2023-04-24T00:13:20;17.70;1.40
316;DHT22;14128;48.686;9.738;2023-04-24T00:15:46;17.60;1.40
316;DHT22;14128;48.686;9.738;2023-04-24T00:18:13;17.50;1.40
316;DHT22;14128;48.686;9.738;2023-04-24T00:20:41;17.40;1.40
316;DHT22;14128;48.686;9.738;2023-04-24T00:23:09;17.40;1.40
316;DHT22;14128;48.686;9.738;2023-04-24T00:25:36;17.20;1.40
316;DHT22;14128;48.686;9.738;2023-04-24T00:28:02;17.20;1.40
316;DHT22;14128;48.686;9.738;2023-04-24T00:30:29;17.10;1.40
316;DHT22;14128;48.686;9.738;2023-04-24T00:32:57;17.20;1.40
316;DHT22;14128;48.686;9.738;2023-04-24T00:35:23;17.00;1.40
316;DHT22;14128;48.686;9.738;2023-04-24T00:37:52;17.10;1.40
316;DHT22;14128;48.686;9.738;2023-04-24T00:40:18;17.10;1.40
316;DHT22;14128;48.686;9.738;2023-04-24T00:42:45;17.10;1.40
316;DHT22;14128;48.686;9.738;2023-04-24T00:45:12;17.10;1.40
316;DHT22;14128;48.686;9.738;2023-04-24T00:47:39;17.20;1.40
316;DHT22;14128;48.686;9.738;2023-04-24T00:50:08;17.10;1.40
316;DHT22;14128;48.686;9.738;2023-04-24T00:52:35;17.10;1.40
316;DHT22;14128;48.686;9.738;2023-04-24T00:55:04;17.00;1.40
316;DHT22;14128;48.686;9.738;2023-04-24T00:57:31;17.00;1.40
316;DHT22;14128;48.686;9.738;2023-04-24T00:59:58;16.90;1.40
316;DHT22;14128;48.686;9.738;2023-04-24T01:02:25;16.90;1.40
316;DHT22;14128;48.686;9.738;2023-04-24T01:04:52;17.00;1.40
316;DHT22;14128;48.686;9.738;2023-04-24T01:07:20;17.00;1.40
316;DHT22;14128;48.686;9.738;2023-04-24T01:09:48;16.90;1.40
316;DHT22;14128;48.686;9.738;2023-04-24T01:12:17;16.80;1.40
316;DHT22;14128;48.686;9.738;2023-04-24T01:14:45;16.70;1.40
316;DHT22;14128;48.686;9.738;2023-04-24T01:17:12;16.70;1.40
316;DHT22;14128;48.686;9.738;2023-04-24T01:19:38;16.70;1.40
316;DHT22;14128;48.686;9.738;2023-04-24T01:22:13;16.70;1.40
316;DHT22;14128;48.686;9.738;2023-04-24T01:24:40;16.60;1.40
316;DHT22;14128;48.686;9.738;2023-04-24T01:27:07;16.60;1.40
316;DHT22;14128;48.686;9.738;2023-04-24T01:29:35;16.50;1.40
316;DHT22;14128;48.686;9.738;2023-04-24T01:32:02;16.40;1.40
316;DHT22;14128;48.686;9.738;2023-04-24T01:34:29;16.40;1.40
316;DHT22;14128;48.686;9.738;2023-04-24T01:36:56;16.30;1.40
316;DHT22;14128;48.686;9.738;2023-04-24T01:39:25;16.30;1.40
316;DHT22;14128;48.686;9.738;2023-04-24T01:41:54;16.30;1.40
316;DHT22;14128;48.686;9.738;2023-04-24T01:44:21;16.20;1.40
316;DHT22;14128;48.686;9.738;2023-04-24T01:46:48;16.20;1.40
316;DHT22;14128;48.686;9.738;2023-04-24T01:49:15;16.30;1.40
316;DHT22;14128;48.686;9.738;2023-04-24T01:51:42;16.30;1.40
316;DHT22;14128;48.686;9.738;2023-04-24T01:54:08;16.40;1.40
316;DHT22;14128;48.686;9.738;2023-04-24T01:56:40;16.30;1.40
316;DHT22;14128;48.686;9.738;2023-04-24T01:59:07;16.20;1.40
316;DHT22;14128;48.686;9.738;2023-04-24T02:01:36;16.20;1.40
316;DHT22;14128;48.686;9.738;2023-04-24T02:04:03;16.20;1.40
316;DHT22;14128;48.686;9.738;2023-04-24T02:06:31;16.20;1.40
316;DHT22;14128;48.686;9.738;2023-04-24T02:08:58;16.20;1.40
316;DHT22;14128;48.686;9.738;2023-04-24T02:11:25;16.10;1.40
316;DHT22;14128;48.686;9.738;2023-04-24T02:13:53;16.10;1.40
316;DHT22;14128;48.686;9.738;2023-04-24T02:16:20;16.00;1.40
316;DHT22;14128;48.686;9.738;2023-04-24T02:18:46;16.00;1.40
316;DHT22;14128;48.686;9.738;2023-04-24T02:21:13;15.90;1.40
316;DHT22;14128;48.686;9.738;2023-04-24T02:23:40;15.70;1.40
316;DHT22;14128;48.686;9.738;2023-04-24T02:26:07;15.50;1.40
316;DHT22;14128;48.686;9.738;2023-04-24T02:28:34;15.40;1.40
316;DHT22;14128;48.686;9.738;2023-04-24T02:31:02;15.30;1.40
316;DHT22;14128;48.686;9.738;2023-04-24T02:33:29;15.30;1.40
316;DHT22;14128;48.686;9.738;2023-04-24T02:35:55;15.00;1.40
316;DHT22;14128;48.686;9.738;2023-04-24T02:38:22;15.10;1.40
316;DHT22;14128;48.686;9.738;2023-04-24T02:40:49;14.90;1.40
316;DHT22;14128;48.686;9.738;2023-04-24T02:43:16;14.80;1.40
316;DHT22;14128;48.686;9.738;2023-04-24T02:45:42;14.70;1.40
316;DHT22;14128;48.686;9.738;2023-04-24T02:48:11;14.60;1.40
316;DHT22;14128;48.686;9.738;2023-04-24T02:50:37;14.60;1.40
316;DHT22;14128;48.686;9.738;2023-04-24T02:53:04;14.60;1.40
316;DHT22;14128;48.686;9.738;2023-04-24T02:55:31;14.50;1.40
316;DHT22;14128;48.686;9.738;2023-04-24T02:57:58;14.60;1.40
316;DHT22;14128;48.686;9.738;2023-04-24T03:00:25;14.60;1.40
316;DHT22;14128;48.686;9.738;2023-04-24T03:02:52;14.60;1.40
316;DHT22;14128;48.686;9.738;2023-04-24T03:05:20;14.50;1.40
316;DHT22;14128;48.686;9.738;2023-04-24T03:07:47;14.50;1.40
316;DHT22;14128;48.686;9.738;2023-04-24T03:10:14;14.60;1.40
316;DHT22;14128;48.686;9.738;2023-04-24T03:12:41;14.50;1.40
316;DHT22;14128;48.686;9.738;2023-04-24T03:15:08;14.60;1.40
316;DHT22;14128;48.686;9.738;2023-04-24T03:17:35;14.50;1.40
316;DHT22;14128;48.686;9.738;2023-04-24T03:20:03;14.50;1.40
316;DHT22;14128;48.686;9.738;2023-04-24T03:22:32;14.50;1.40
316;DHT22;14128;48.686;9.738;2023-04-24T03:24:59;14.60;1.40
316;DHT22;14128;48.686;9.738;2023-04-24T03:27:26;14.50;1.40
316;DHT22;14128;48.686;9.738;2023-04-24T03:29:53;14.60;1.40
316;DHT22;14128;48.686;9.738;2023-04-24T03:32:21;14.60;1.40
316;DHT22;14128;48.686;9.738;2023-04-24T03:34:48;14.60;1.40
316;DHT22;14128;48.686;9.738;2023-04-24T03:37:15;14.70;1.40
316;DHT22;14128;48.686;9.738;2023-04-24T03:39:43;14.40;1.40
316;DHT22;14128;48.686;9.738;2023-04-24T03:42:10;14.70;1.40
316;DHT22;14128;48.686;9.738;2023-04-24T03:44:37;15.00;1.40
316;DHT22;14128;48.686;9.738;2023-04-24T03:47:04;15.10;1.40
316;DHT22;14128;48.686;9.738;2023-04-24T03:49:31;15.30;1.40
316;DHT22;14128;48.686;9.738;2023-04-24T03:51:57;15.20;1.40
316;DHT22;14128;48.686;9.738;2023-04-24T03:54:24;15.30;1.40
316;DHT22;14128;48.686;9.738;2023-04-24T03:56:52;15.30;1.40
316;DHT22;14128;48.686;9.738;2023-04-24T03:59:19;15.30;1.40
316;DHT22;14128;48.686;9.738;2023-04-24T04:01:46;15.30;1.40
316;DHT22;14128;48.686;9.738;2023-04-24T04:04:13;15.30;1.40
316;DHT22;14128;48.686;9.738;2023-04-24T04:06:40;15.20;1.40
316;DHT22;14128;48.686;9.738;2023-04-24T04:09:07;15.30;1.40
316;DHT22;14128;48.686;9.738;2023-04-24T04:11:34;15.40;1.40
316;DHT22;14128;48.686;9.738;2023-04-24T04:14:03;15.20;1.40
316;DHT22;14128;48.686;9.738;2023-04-24T04:16:30;15.20;1.40
316;DHT22;14128;48.686;9.738;2023-04-24T04:18:57;15.20;1.40
316;DHT22;14128;48.686;9.738;2023-04-24T04:21:24;15.20;1.40
316;DHT22;14128;48.686;9.738;2023-04-24T04:23:52;15.20;1.40
316;DHT22;14128;48.686;9.738;2023-04-24T04:26:18;15.30;1.40
316;DHT22;14128;48.686;9.738;2023-04-24T04:28:46;15.30;1.40
316;DHT22;14128;48.686;9.738;2023-04-24T04:31:15;15.20;1.40
316;DHT22;14128;48.686;9.738;2023-04-24T04:33:42;15.20;1.40
316;DHT22;14128;48.686;9.738;2023-04-24T04:36:09;15.10;1.40
316;DHT22;14128;48.686;9.738;2023-04-24T04:38:36;15.00;1.40
316;DHT22;14128;48.686;9.738;2023-04-24T04:41:03;15.00;1.40
316;DHT22;14128;48.686;9.738;2023-04-24T04:43:30;14.90;1.40
316;DHT22;14128;48.686;9.738;2023-04-24T04:45:58;14.90;1.40
316;DHT22;14128;48.686;9.738;2023-04-24T04:48:27;14.90;1.40
316;DHT22;14128;48.686;9.738;2023-04-24T04:50:54;15.00;1.40
316;DHT22;14128;48.686;9.738;2023-04-24T04:53:21;15.00;1.40
316;DHT22;14128;48.686;9.738;2023-04-24T04:55:48;15.10;1.40
316;DHT22;14128;48.686;9.738;2023-04-24T04:58:14;15.10;1.40
316;DHT22;14128;48.686;9.738;2023-04-24T05:00:41;15.20;1.40
316;DHT22;14128;48.686;9.738;2023-04-24T05:03:08;15.20;1.40
316;DHT22;14128;48.686;9.738;2023-04-24T05:05:36;15.30;1.40
316;DHT22;14128;48.686;9.738;2023-04-24T05:08:06;15.40;1.40
316;DHT22;14128;48.686;9.738;2023-04-24T05:10:33;15.50;1.40
316;DHT22;14128;48.686;9.738;2023-04-24T05:12:59;15.70;1.40
316;DHT22;14128;48.686;9.738;2023-04-24T05:15:26;15.70;1.40
316;DHT22;14128;48.686;9.738;2023-04-24T05:17:53;15.80;1.40
316;DHT22;14128;48.686;9.738;2023-04-24T05:20:20;15.80;1.40
316;DHT22;14128;48.686;9.738;2023-04-24T05:22:48;15.80;1.40
316;DHT22;14128;48.686;9.738;2023-04-24T05:25:15;15.80;1.40
316;DHT22;14128;48.686;9.738;2023-04-24T05:27:42;15.60;1.40
316;DHT22;14128;48.686;9.738;2023-04-24T05:30:11;14.70;1.40
316;DHT22;14128;48.686;9.738;2023-04-24T05:32:38;14.50;1.40
316;DHT22;14128;48.686;9.738;2023-04-24T05:35:05;14.30;1.40
316;DHT22;14128;48.686;9.738;2023-04-24T05:37:32;14.20;1.40
316;DHT22;14128;48.686;9.738;2023-04-24T05:40:00;14.10;1.40
316;DHT22;14128;48.686;9.738;2023-04-24T05:42:30;14.00;1.40
316;DHT22;14128;48.686;9.738;2023-04-24T05:44:57;14.20;1.40
316;DHT22;14128;48.686;9.738;2023-04-24T05:47:24;14.10;1.40
316;DHT22;14128;48.686;9.738;2023-04-24T05:49:52;14.10;1.40
316;DHT22;14128;48.686;9.738;2023-04-24T05:52:19;14.00;1.40
316;DHT22;14128;48.686;9.738;2023-04-24T05:54:45;14.00;1.40
316;DHT22;14128;48.686;9.738;2023-04-24T05:57:14;13.90;1.40
316;DHT22;14128;48.686;9.738;2023-04-24T05:59:40;13.90;1.40
316;DHT22;14128;48.686;9.738;2023-04-24T06:02:07;13.90;1.40
316;DHT22;14128;48.686;9.738;2023-04-24T06:04:34;13.90;1.40
316;DHT22;14128;48.686;9.738;2023-04-24T06:07:01;14.00;1.40
316;DHT22;14128;48.686;9.738;2023-04-24T06:09:28;14.00;1.40
316;DHT22;14128;48.686;9.738;2023-04-24T06:11:55;14.10;1.40
316;DHT22;14128;48.686;9.738;2023-04-24T06:14:23;13.90;1.40
316;DHT22;14128;48.686;9.738;2023-04-24T06:16:50;14.20;1.40
316;DHT22;14128;48.686;9.738;2023-04-24T06:19:17;14.30;1.40
316;DHT22;14128;48.686;9.738;2023-04-24T06:21:44;14.40;1.40
316;DHT22;14128;48.686;9.738;2023-04-24T06:24:13;14.40;1.40
316;DHT22;14128;48.686;9.738;2023-04-24T06:26:41;14.40;1.40
316;DHT22;14128;48.686;9.738;2023-04-24T06:29:08;14.60;1.40
316;DHT22;14128;48.686;9.738;2023-04-24T06:31:36;14.60;1.40
316;DHT22;14128;48.686;9.738;2023-04-24T06:34:03;14.70;1.40
316;DHT22;14128;48.686;9.738;2023-04-24T06:36:30;14.80;1.40
316;DHT22;14128;48.686;9.738;2023-04-24T06:38:59;15.00;1.40
316;DHT22;14128;48.686;9.738;2023-04-24T06:41:26;15.20;1.40
316;DHT22;14128;48.686;9.738;2023-04-24T06:43:53;15.30;1.40
316;DHT22;14128;48.686;9.738;2023-04-24T06:46:20;15.50;1.40
316;DHT22;14128;48.686;9.738;2023-04-24T06:48:50;15.20;1.40
316;DHT22;14128;48.686;9.738;2023-04-24T06:51:17;15.60;1.40
316;DHT22;14128;48.686;9.738;2023-04-24T06:53:44;15.70;1.40
316;DHT22;14128;48.686;9.738;2023-04-24T06:56:11;15.60;1.40
316;DHT22;14128;48.686;9.738;2023-04-24T06:58:38;15.50;1.40
316;DHT22;14128;48.686;9.738;2023-04-24T07:01:04;15.30;1.40
316;DHT22;14128;48.686;9.738;2023-04-24T07:03:31;15.10;1.40
316;DHT22;14128;48.686;9.738;2023-04-24T07:05:59;15.10;1.40
316;DHT22;14128;48.686;9.738;2023-04-24T07:08:26;14.90;1.40
316;DHT22;14128;48.686;9.738;2023-04-24T07:10:53;15.10;1.40
316;DHT22;14128;48.686;9.738;2023-04-24T07:13:21;14.80;1.40
316;DHT22;14128;48.686;9.738;2023-04-24T07:15:48;14.70;1.40
316;DHT22;14128;48.686;9.738;2023-04-24T07:18:16;14.70;1.40
316;DHT22;14128;48.686;9.738;2023-04-24T07:20:43;14.80;1.40
316;DHT22;14128;48.686;9.738;2023-04-24T07:23:11;14.80;1.40
316;DHT22;14128;48.686;9.738;2023-04-24T07:25:38;14.90;1.40
316;DHT22;14128;48.686;9.738;2023-04-24T07:28:06;15.10;1.40
316;DHT22;14128;48.686;9.738;2023-04-24T07:30:33;15.20;1.40
316;DHT22;14128;48.686;9.738;2023-04-24T07:32:59;15.40;1.40
316;DHT22;14128;48.686;9.738;2023-04-24T07:35:26;15.60;1.40
316;DHT22;14128;48.686;9.738;2023-04-24T07:37:53;15.90;1.40
316;DHT22;14128;48.686;9.738;2023-04-24T07:40:22;16.40;1.40
316;DHT22;14128;48.686;9.738;2023-04-24T07:42:49;16.80;1.40
316;DHT22;14128;48.686;9.738;2023-04-24T07:45:16;17.00;1.40
316;DHT22;14128;48.686;9.738;2023-04-24T07:47:43;17.00;1.40
316;DHT22;14128;48.686;9.738;2023-04-24T07:50:11;17.50;1.40
316;DHT22;14128;48.686;9.738;2023-04-24T07:52:38;17.80;1.40
316;DHT22;14128;48.686;9.738;2023-04-24T07:55:06;18.10;1.40
316;DHT22;14128;48.686;9.738;2023-04-24T07:57:34;18.10;1.40
316;DHT22;14128;48.686;9.738;2023-04-24T08:00:02;18.00;1.40
316;DHT22;14128;48.686;9.738;2023-04-24T08:02:29;17.80;1.40
316;DHT22;14128;48.686;9.738;2023-04-24T08:04:55;17.80;1.40
316;DHT22;14128;48.686;9.738;2023-04-24T08:07:23;17.60;1.40
316;DHT22;14128;48.686;9.738;2023-04-24T08:09:50;17.60;1.40
316;DHT22;14128;48.686;9.738;2023-04-24T08:12:23;17.30;1.40
316;DHT22;14128;48.686;9.738;2023-04-24T08:14:51;17.20;1.40
316;DHT22;14128;48.686;9.738;2023-04-24T08:17:18;16.80;1.40
316;DHT22;14128;48.686;9.738;2023-04-24T08:19:45;16.60;1.40
316;DHT22;14128;48.686;9.738;2023-04-24T08:22:13;16.50;1.40
316;DHT22;14128;48.686;9.738;2023-04-24T08:24:40;16.30;1.40
316;DHT22;14128;48.686;9.738;2023-04-24T08:27:08;16.40;1.40
316;DHT22;14128;48.686;9.738;2023-04-24T08:29:35;16.40;1.40
316;DHT22;14128;48.686;9.738;2023-04-24T08:32:04;16.30;1.40
316;DHT22;14128;48.686;9.738;2023-04-24T08:34:30;16.40;1.40
316;DHT22;14128;48.686;9.738;2023-04-24T08:36:57;16.70;1.40
316;DHT22;14128;48.686;9.738;2023-04-24T08:39:24;16.80;1.40
316;DHT22;14128;48.686;9.738;2023-04-24T08:41:52;16.80;1.40
316;DHT22;14128;48.686;9.738;2023-04-24T08:44:20;16.50;1.40
316;DHT22;14128;48.686;9.738;2023-04-24T08:46:48;16.60;1.40
316;DHT22;14128;48.686;9.738;2023-04-24T08:49:18;16.80;1.40
316;DHT22;14128;48.686;9.738;2023-04-24T08:51:45;16.70;1.40
316;DHT22;14128;48.686;9.738;2023-04-24T08:54:13;16.80;1.40
316;DHT22;14128;48.686;9.738;2023-04-24T08:56:42;17.10;1.40
316;DHT22;14128;48.686;9.738;2023-04-24T08:59:10;17.20;1.40
316;DHT22;14128;48.686;9.738;2023-04-24T09:01:37;17.00;1.40
316;DHT22;14128;48.686;9.738;2023-04-24T09:04:07;17.10;1.40
316;DHT22;14128;48.686;9.738;2023-04-24T09:06:36;17.10;1.40
316;DHT22;14128;48.686;9.738;2023-04-24T09:09:03;17.20;1.40
316;DHT22;14128;48.686;9.738;2023-04-24T09:11:31;17.10;1.40
316;DHT22;14128;48.686;9.738;2023-04-24T09:13:58;17.00;1.40
316;DHT22;14128;48.686;9.738;2023-04-24T09:16:26;16.80;1.40
316;DHT22;14128;48.686;9.738;2023-04-24T09:18:53;16.90;1.40
316;DHT22;14128;48.686;9.738;2023-04-24T09:21:21;16.80;1.40
316;DHT22;14128;48.686;9.738;2023-04-24T09:23:57;16.80;1.40
316;DHT22;14128;48.686;9.738;2023-04-24T09:26:25;16.70;1.40
316;DHT22;14128;48.686;9.738;2023-04-24T09:28:53;16.80;1.40
316;DHT22;14128;48.686;9.738;2023-04-24T09:31:20;17.00;1.40
316;DHT22;14128;48.686;9.738;2023-04-24T09:33:54;17.20;1.40
316;DHT22;14128;48.686;9.738;2023-04-24T09:36:27;17.60;1.40
316;DHT22;14128;48.686;9.738;2023-04-24T09:38:59;18.00;1.40
316;DHT22;14128;48.686;9.738;2023-04-24T09:41:27;18.30;1.40
316;DHT22;14128;48.686;9.738;2023-04-24T09:43:55;18.20;1.40
316;DHT22;14128;48.686;9.738;2023-04-24T09:46:29;18.40;1.40
316;DHT22;14128;48.686;9.738;2023-04-24T09:48:57;18.30;1.40
316;DHT22;14128;48.686;9.738;2023-04-24T09:51:34;18.10;1.40
316;DHT22;14128;48.686;9.738;2023-04-24T09:54:03;17.80;1.40
316;DHT22;14128;48.686;9.738;2023-04-24T09:56:32;17.70;1.40
316;DHT22;14128;48.686;9.738;2023-04-24T09:59:05;17.60;1.40
316;DHT22;14128;48.686;9.738;2023-04-24T10:01:33;17.70;1.40
316;DHT22;14128;48.686;9.738;2023-04-24T10:04:00;17.80;1.40
316;DHT22;14128;48.686;9.738;2023-04-24T10:06:32;18.30;1.40
316;DHT22;14128;48.686;9.738;2023-04-24T10:08:59;18.50;1.40
316;DHT22;14128;48.686;9.738;2023-04-24T10:11:28;18.40;1.40
316;DHT22;14128;48.686;9.738;2023-04-24T10:13:55;18.40;1.40
316;DHT22;14128;48.686;9.738;2023-04-24T10:16:23;18.20;1.40
316;DHT22;14128;48.686;9.738;2023-04-24T10:18:52;18.20;1.40
316;DHT22;14128;48.686;9.738;2023-04-24T10:21:19;18.40;1.40
316;DHT22;14128;48.686;9.738;2023-04-24T10:23:48;18.50;1.40
316;DHT22;14128;48.686;9.738;2023-04-24T10:26:16;18.50;1.40
316;DHT22;14128;48.686;9.738;2023-04-24T10:28:47;18.10;1.40
316;DHT22;14128;48.686;9.738;2023-04-24T10:31:14;18.10;1.40
316;DHT22;14128;48.686;9.738;2023-04-24T10:33:42;18.50;1.40
316;DHT22;14128;48.686;9.738;2023-04-24T10:36:10;18.40;1.40
316;DHT22;14128;48.686;9.738;2023-04-24T10:38:39;18.40;1.40
316;DHT22;14128;48.686;9.738;2023-04-24T10:41:09;18.80;1.40
316;DHT22;14128;48.686;9.738;2023-04-24T10:43:41;18.90;1.40
316;DHT22;14128;48.686;9.738;2023-04-24T10:46:10;19.30;1.40
316;DHT22;14128;48.686;9.738;2023-04-24T10:48:47;19.20;1.40
316;DHT22;14128;48.686;9.738;2023-04-24T10:51:18;18.80;1.40
316;DHT22;14128;48.686;9.738;2023-04-24T10:53:49;18.50;1.40
316;DHT22;14128;48.686;9.738;2023-04-24T10:56:17;18.20;1.40
316;DHT22;14128;48.686;9.738;2023-04-24T10:58:45;18.30;1.40
316;DHT22;14128;48.686;9.738;2023-04-24T11:01:27;18.30;1.40
316;DHT22;14128;48.686;9.738;2023-04-24T11:03:55;18.00;1.40
316;DHT22;14128;48.686;9.738;2023-04-24T11:06:28;17.50;1.40
316;DHT22;14128;48.686;9.738;2023-04-24T11:09:02;17.60;1.40
316;DHT22;14128;48.686;9.738;2023-04-24T11:11:30;17.90;1.40
316;DHT22;14128;48.686;9.738;2023-04-24T11:14:07;18.00;1.40
316;DHT22;14128;48.686;9.738;2023-04-24T11:16:43;17.90;1.40
316;DHT22;14128;48.686;9.738;2023-04-24T11:19:18;18.10;1.40
316;DHT22;14128;48.686;9.738;2023-04-24T11:21:47;18.50;1.40
316;DHT22;14128;48.686;9.738;2023-04-24T11:24:28;18.90;1.40
316;DHT22;14128;48.686;9.738;2023-04-24T11:26:58;19.50;1.40
316;DHT22;14128;48.686;9.738;2023-04-24T11:29:41;19.90;1.40
316;DHT22;14128;48.686;9.738;2023-04-24T11:32:25;11.80;1.40
316;DHT22;14128;48.686;9.738;2023-04-24T11:34:53;11.30;1.40
316;DHT22;14128;48.686;9.738;2023-04-24T11:37:22;11.50;1.40
316;DHT22;14128;48.686;9.738;2023-04-24T11:39:51;11.30;1.40
316;DHT22;14128;48.686;9.738;2023-04-24T11:42:18;11.60;1.40
316;DHT22;14128;48.686;9.738;2023-04-24T11:44:46;11.50;1.40
316;DHT22;14128;48.686;9.738;2023-04-24T11:47:13;10.80;1.40
316;DHT22;14128;48.686;9.738;2023-04-24T11:49:42;11.00;1.40
316;DHT22;14128;48.686;9.738;2023-04-24T11:52:09;10.90;1.40
316;DHT22;14128;48.686;9.738;2023-04-24T11:54:36;11.50;1.40
316;DHT22;14128;48.686;9.738;2023-04-24T11:57:04;11.10;1.40
316;DHT22;14128;48.686;9.738;2023-04-24T11:59:35;11.10;1.40
316;DHT22;14128;48.686;9.738;2023-04-24T12:02:03;10.90;1.40
316;DHT22;14128;48.686;9.738;2023-04-24T12:04:39;10.90;1.40
316;DHT22;14128;48.686;9.738;2023-04-24T12:07:08;10.50;1.40
316;DHT22;14128;48.686;9.738;2023-04-24T12:09:42;10.40;1.40
316;DHT22;14128;48.686;9.738;2023-04-24T12:12:09;10.20;1.40
316;DHT22;14128;48.686;9.738;2023-04-24T12:14:43;10.40;1.40
316;DHT22;14128;48.686;9.738;2023-04-24T12:17:10;10.10;1.40
316;DHT22;14128;48.686;9.738;2023-04-24T12:19:36;10.40;1.40
316;DHT22;14128;48.686;9.738;2023-04-24T12:22:06;10.40;1.40
316;DHT22;14128;48.686;9.738;2023-04-24T12:24:33;10.50;1.40
316;DHT22;14128;48.686;9.738;2023-04-24T12:27:00;10.90;1.40
316;DHT22;14128;48.686;9.738;2023-04-24T12:29:28;11.60;1.40
316;DHT22;14128;48.686;9.738;2023-04-24T12:31:54;11.40;1.40
316;DHT22;14128;48.686;9.738;2023-04-24T12:34:22;11.30;1.40
316;DHT22;14128;48.686;9.738;2023-04-24T12:36:50;10.70;1.40
316;DHT22;14128;48.686;9.738;2023-04-24T12:39:19;11.00;1.40
316;DHT22;14128;48.686;9.738;2023-04-24T12:41:50;11.10;1.40
316;DHT22;14128;48.686;9.738;2023-04-24T12:44:29;11.20;1.40
316;DHT22;14128;48.686;9.738;2023-04-24T12:46:56;11.10;1.40
316;DHT22;14128;48.686;9.738;2023-04-24T12:49:22;11.30;1.40
316;DHT22;14128;48.686;9.738;2023-04-24T12:51:49;11.40;1.40
316;DHT22;14128;48.686;9.738;2023-04-24T12:54:18;11.90;1.40
316;DHT22;14128;48.686;9.738;2023-04-24T12:56:44;12.00;1.40
316;DHT22;14128;48.686;9.738;2023-04-24T12:59:11;11.90;1.40
316;DHT22;14128;48.686;9.738;2023-04-24T13:01:38;12.50;1.40
316;DHT22;14128;48.686;9.738;2023-04-24T13:04:05;12.90;1.40
316;DHT22;14128;48.686;9.738;2023-04-24T13:06:32;13.00;1.40
316;DHT22;14128;48.686;9.738;2023-04-24T13:08:59;12.80;1.40
316;DHT22;14128;48.686;9.738;2023-04-24T13:11:27;12.40;1.40
316;DHT22;14128;48.686;9.738;2023-04-24T13:13:54;12.10;1.40
316;DHT22;14128;48.686;9.738;2023-04-24T13:16:21;11.50;1.40
316;DHT22;14128;48.686;9.738;2023-04-24T13:18:48;11.30;1.40
316;DHT22;14128;48.686;9.738;2023-04-24T13:21:15;11.60;1.40
316;DHT22;14128;48.686;9.738;2023-04-24T13:23:42;12.00;1.40
316;DHT22;14128;48.686;9.738;2023-04-24T13:26:09;12.50;1.40
316;DHT22;14128;48.686;9.738;2023-04-24T13:28:37;13.20;1.40
316;DHT22;14128;48.686;9.738;2023-04-24T13:31:04;12.30;1.40
316;DHT22;14128;48.686;9.738;2023-04-24T13:33:31;12.70;1.40
316;DHT22;14128;48.686;9.738;2023-04-24T13:35:58;12.70;1.40
316;DHT22;14128;48.686;9.738;2023-04-24T13:38:25;12.90;1.40
316;DHT22;14128;48.686;9.738;2023-04-24T13:40:52;13.00;1.40
316;DHT22;14128;48.686;9.738;2023-04-24T13:43:19;13.20;1.40
316;DHT22;14128;48.686;9.738;2023-04-24T13:45:47;13.50;1.40
316;DHT22;14128;48.686;9.738;2023-04-24T13:48:14;12.50;1.40
316;DHT22;14128;48.686;9.738;2023-04-24T13:50:41;11.60;1.40
316;DHT22;14128;48.686;9.738;2023-04-24T13:53:08;11.90;1.40
316;DHT22;14128;48.686;9.738;2023-04-24T13:55:35;11.50;1.40
316;DHT22;14128;48.686;9.738;2023-04-24T13:58:02;11.70;1.40
316;DHT22;14128;48.686;9.738;2023-04-24T14:00:30;12.50;1.40
316;DHT22;14128;48.686;9.738;2023-04-24T14:02:59;12.30;1.40
316;DHT22;14128;48.686;9.738;2023-04-24T14:05:26;12.70;1.40
316;DHT22;14128;48.686;9.738;2023-04-24T14:07:52;12.80;1.40
316;DHT22;14128;48.686;9.738;2023-04-24T14:10:19;12.80;1.40
316;DHT22;14128;48.686;9.738;2023-04-24T14:12:46;12.80;1.40
316;DHT22;14128;48.686;9.738;2023-04-24T14:15:13;12.80;1.40
316;DHT22;14128;48.686;9.738;2023-04-24T14:17:40;12.60;1.40
316;DHT22;14128;48.686;9.738;2023-04-24T14:20:09;12.30;1.40
316;DHT22;14128;48.686;9.738;2023-04-24T14:22:37;12.10;1.40
316;DHT22;14128;48.686;9.738;2023-04-24T14:25:05;12.00;1.40
316;DHT22;14128;48.686;9.738;2023-04-24T14:27:32;11.70;1.40
316;DHT22;14128;48.686;9.738;2023-04-24T14:30:00;11.50;1.40
316;DHT22;14128;48.686;9.738;2023-04-24T14:32:26;11.30;1.40
316;DHT22;14128;48.686;9.738;2023-04-24T14:34:53;11.10;1.40
316;DHT22;14128;48.686;9.738;2023-04-24T14:37:21;11.00;1.40
316;DHT22;14128;48.686;9.738;2023-04-24T14:39:48;11.10;1.40
316;DHT22;14128;48.686;9.738;2023-04-24T14:42:15;10.80;1.40
316;DHT22;14128;48.686;9.738;2023-04-24T14:44:43;10.70;1.40
316;DHT22;14128;48.686;9.738;2023-04-24T14:47:10;10.50;1.40
316;DHT22;14128;48.686;9.738;2023-04-24T14:49:36;10.40;1.40
316;DHT22;14128;48.686;9.738;2023-04-24T14:52:04;10.50;1.40
316;DHT22;14128;48.686;9.738;2023-04-24T14:54:32;11.10;1.40
316;DHT22;14128;48.686;9.738;2023-04-24T14:56:59;11.60;1.40
316;DHT22;14128;48.686;9.738;2023-04-24T14:59:27;12.10;1.40
316;DHT22;14128;48.686;9.738;2023-04-24T15:01:54;12.40;1.40
316;DHT22;14128;48.686;9.738;2023-04-24T15:04:23;12.20;1.40
316;DHT22;14128;48.686;9.738;2023-04-24T15:06:50;11.60;1.40
316;DHT22;14128;48.686;9.738;2023-04-24T15:09:19;11.60;1.40
316;DHT22;14128;48.686;9.738;2023-04-24T15:11:47;11.70;1.40
316;DHT22;14128;48.686;9.738;2023-04-24T15:14:14;11.50;1.40
316;DHT22;14128;48.686;9.738;2023-04-24T15:16:41;11.10;1.40
316;DHT22;14128;48.686;9.738;2023-04-24T15:19:08;10.90;1.40
316;DHT22;14128;48.686;9.738;2023-04-24T15:21:35;10.80;1.40
316;DHT22;14128;48.686;9.738;2023-04-24T15:24:03;10.60;1.40
316;DHT22;14128;48.686;9.738;2023-04-24T15:26:30;10.80;1.40
316;DHT22;14128;48.686;9.738;2023-04-24T15:28:59;11.20;1.40
316;DHT22;14128;48.686;9.738;2023-04-24T15:31:25;11.70;1.40
316;DHT22;14128;48.686;9.738;2023-04-24T15:33:52;12.20;1.40
316;DHT22;14128;48.686;9.738;2023-04-24T15:36:20;16.10;1.40
316;DHT22;14128;48.686;9.738;2023-04-24T15:38:47;19.50;1.40
316;DHT22;14128;48.686;9.738;2023-04-24T15:41:14;18.10;1.40
316;DHT22;14128;48.686;9.738;2023-04-24T15:43:41;17.20;99.90
316;DHT22;14128;48.686;9.738;2023-04-24T15:46:09;16.30;1.00
316;DHT22;14128;48.686;9.738;2023-04-24T15:48:36;18.90;1.40
316;DHT22;14128;48.686;9.738;2023-04-24T15:51:06;18.80;1.40
316;DHT22;14128;48.686;9.738;2023-04-24T15:53:33;19.90;1.40
316;DHT22;14128;48.686;9.738;2023-04-24T15:56:00;19.90;1.40
316;DHT22;14128;48.686;9.738;2023-04-24T15:58:27;16.50;1.40
316;DHT22;14128;48.686;9.738;2023-04-24T16:00:54;14.80;1.40
316;DHT22;14128;48.686;9.738;2023-04-24T16:03:22;14.20;1.40
316;DHT22;14128;48.686;9.738;2023-04-24T16:05:49;13.30;99.90
316;DHT22;14128;48.686;9.738;2023-04-24T16:08:16;13.10;99.90
316;DHT22;14128;48.686;9.738;2023-04-24T16:10:43;12.80;99.90
316;DHT22;14128;48.686;9.738;2023-04-24T16:13:11;12.70;99.90
316;DHT22;14128;48.686;9.738;2023-04-24T16:15:38;12.60;39.20
316;DHT22;14128;48.686;9.738;2023-04-24T16:18:06;12.60;1.00
316;DHT22;14128;48.686;9.738;2023-04-24T16:20:34;12.80;1.00